createdAt,value
2023-02-09T00:00:13.835Z,1.70
2023-02-09T00:02:41.035Z,2.22
2023-02-09T00:05:09.176Z,1.80
2023-02-09T00:07:36.034Z,1.53
2023-02-09T00:10:03.503Z,1.40
2023-02-09T00:12:48.998Z,1.52
2023-02-09T00:15:15.728Z,1.40
2023-02-09T00:17:42.629Z,1.33
2023-02-09T00:20:10.206Z,1.30
2023-02-09T00:22:36.950Z,1.30
2023-02-09T00:25:03.727Z,1.93
2023-02-09T00:27:32.436Z,2.63
2023-02-09T00:29:59.163Z,0.87
2023-02-09T00:32:25.846Z,1.83
2023-02-09T00:34:52.820Z,1.47
2023-02-09T00:37:19.561Z,0.80
2023-02-09T00:39:46.559Z,2.60
2023-02-09T00:42:13.252Z,1.23
2023-02-09T00:44:40.815Z,1.00
2023-02-09T00:47:09.425Z,2.15
2023-02-09T00:49:36.928Z,1.43
2023-02-09T00:52:04.091Z,1.50
2023-02-09T00:54:30.834Z,2.58
2023-02-09T00:57:05.306Z,1.13
2023-02-09T00:59:33.871Z,1.70
2023-02-09T01:02:00.832Z,1.10
2023-02-09T01:04:27.785Z,1.70
2023-02-09T01:06:54.511Z,2.00
2023-02-09T01:09:21.349Z,2.47
2023-02-09T01:11:48.057Z,1.00
2023-02-09T01:14:14.756Z,2.63
2023-02-09T01:16:41.550Z,1.77
2023-02-09T01:19:08.396Z,1.33
2023-02-09T01:21:35.194Z,1.00
2023-02-09T01:24:02.052Z,1.73
2023-02-09T01:26:28.736Z,1.93
2023-02-09T01:28:55.740Z,1.77
2023-02-09T01:31:31.859Z,1.17
2023-02-09T01:34:01.005Z,0.90
2023-02-09T01:36:29.347Z,2.77
2023-02-09T01:38:57.836Z,1.03
2023-02-09T01:41:25.309Z,2.23
2023-02-09T01:44:04.954Z,1.40
2023-02-09T01:46:34.722Z,2.00
2023-02-09T01:49:04.784Z,2.08
2023-02-09T01:51:36.753Z,1.60
2023-02-09T01:54:15.593Z,1.57
2023-02-09T01:56:45.774Z,1.75
2023-02-09T01:59:14.460Z,2.50
2023-02-09T02:01:41.468Z,1.63
2023-02-09T02:04:08.827Z,3.63
2023-02-09T02:06:36.413Z,2.42
2023-02-09T02:09:11.886Z,2.85
2023-02-09T02:11:40.460Z,2.50
2023-02-09T02:14:07.168Z,2.37
2023-02-09T02:17:00.065Z,4.43
2023-02-09T02:19:33.006Z,2.07
2023-02-09T02:22:24.725Z,2.90
2023-02-09T02:25:10.039Z,2.80
2023-02-09T02:27:55.751Z,1.75
2023-02-09T02:30:59.818Z,1.60
2023-02-09T02:33:45.033Z,2.20
2023-02-09T02:36:35.358Z,1.70
2023-02-09T02:39:23.906Z,1.20
2023-02-09T02:42:28.258Z,1.10
2023-02-09T02:45:11.287Z,1.20
2023-02-09T02:47:42.064Z,0.97
2023-02-09T02:50:19.727Z,2.23
2023-02-09T02:52:49.633Z,1.67
2023-02-09T02:55:20.886Z,1.40
2023-02-09T02:57:51.137Z,0.90
2023-02-09T03:00:28.213Z,2.07
2023-02-09T03:03:00.056Z,1.17
2023-02-09T03:05:28.066Z,1.33
2023-02-09T03:10:24.431Z,0.70
2023-02-09T03:13:23.485Z,0.90
2023-02-09T03:16:08.769Z,0.73
2023-02-09T03:19:14.529Z,0.60
2023-02-09T03:21:44.274Z,0.53
2023-02-09T03:24:20.001Z,1.07
2023-02-09T03:26:54.634Z,1.30
2023-02-09T03:29:24.590Z,0.80
2023-02-09T03:31:51.856Z,0.53
2023-02-09T03:34:19.128Z,1.38
2023-02-09T03:36:52.011Z,0.93
2023-02-09T03:39:18.905Z,0.63
2023-02-09T03:41:46.096Z,1.07
2023-02-09T03:44:28.242Z,1.27
2023-02-09T03:47:00.938Z,1.47
2023-02-09T03:49:31.870Z,1.27
2023-02-09T03:52:01.834Z,1.37
2023-02-09T03:54:32.387Z,1.20
2023-02-09T03:57:00.513Z,1.20
2023-02-09T03:59:28.989Z,0.73
2023-02-09T04:01:58.158Z,0.97
2023-02-09T04:04:26.347Z,1.83
2023-02-09T04:06:53.675Z,1.40
2023-02-09T04:09:20.762Z,0.70
2023-02-09T04:11:47.722Z,0.60
2023-02-09T04:14:15.264Z,1.07
2023-02-09T04:16:42.254Z,0.80
2023-02-09T04:19:11.545Z,1.02
2023-02-09T04:21:39.368Z,1.77
2023-02-09T04:24:07.257Z,2.85
2023-02-09T04:29:00.778Z,1.77
2023-02-09T04:31:27.754Z,1.77
2023-02-09T04:33:54.583Z,1.70
2023-02-09T04:36:23.435Z,2.87
2023-02-09T04:38:50.997Z,1.97
2023-02-09T04:41:18.073Z,1.48
2023-02-09T04:43:46.596Z,3.17
2023-02-09T04:46:15.169Z,1.40
2023-02-09T04:48:42.334Z,1.00
2023-02-09T04:51:09.459Z,1.15
2023-02-09T04:53:36.490Z,1.98
2023-02-09T04:56:06.877Z,1.13
2023-02-09T04:58:52.129Z,0.63
2023-02-09T05:01:22.448Z,0.73
2023-02-09T05:03:49.433Z,0.50
2023-02-09T05:06:16.800Z,1.47
2023-02-09T05:08:44.525Z,1.00
2023-02-09T05:11:12.495Z,1.10
2023-02-09T05:16:12.433Z,0.90
2023-02-09T05:18:39.324Z,0.57
2023-02-09T05:21:06.154Z,0.70
2023-02-09T05:23:32.853Z,0.70
2023-02-09T05:25:59.696Z,0.63
2023-02-09T05:28:26.515Z,1.00
2023-02-09T05:30:56.363Z,1.90
2023-02-09T05:33:25.090Z,0.60
2023-02-09T05:35:53.285Z,0.77
2023-02-09T05:38:19.989Z,1.47
2023-02-09T05:40:47.060Z,1.40
2023-02-09T05:43:14.112Z,1.73
2023-02-09T05:45:40.977Z,1.00
2023-02-09T05:48:07.711Z,0.82
2023-02-09T05:50:36.070Z,1.10
2023-02-09T05:53:03.070Z,0.87
2023-02-09T05:55:30.182Z,1.15
2023-02-09T05:57:59.988Z,0.52
2023-02-09T06:00:29.769Z,1.07
2023-02-09T06:02:57.179Z,2.37
2023-02-09T06:05:24.211Z,1.52
2023-02-09T06:07:51.095Z,1.23
2023-02-09T06:10:18.526Z,1.47
2023-02-09T06:12:45.666Z,1.45
2023-02-09T06:15:12.863Z,1.25
2023-02-09T06:17:39.585Z,2.17
2023-02-09T06:20:06.968Z,0.73
2023-02-09T06:22:34.200Z,1.15
2023-02-09T06:25:00.933Z,1.92
2023-02-09T06:27:27.829Z,1.00
2023-02-09T06:29:54.732Z,1.38
2023-02-09T06:32:21.523Z,0.70
2023-02-09T06:34:48.393Z,1.50
2023-02-09T06:37:18.250Z,1.37
2023-02-09T06:39:44.974Z,1.73
2023-02-09T06:42:11.629Z,0.93
2023-02-09T06:44:38.247Z,1.37
2023-02-09T06:47:05.039Z,1.17
2023-02-09T06:49:31.861Z,2.07
2023-02-09T06:51:58.802Z,1.33
2023-02-09T06:54:28.233Z,1.90
2023-02-09T06:56:56.164Z,2.50
2023-02-09T07:01:54.457Z,1.70
2023-02-09T07:04:21.682Z,1.57
2023-02-09T07:06:51.989Z,1.80
2023-02-09T07:09:18.778Z,2.10
2023-02-09T07:11:45.453Z,2.90
2023-02-09T07:14:12.118Z,1.53
2023-02-09T07:16:38.968Z,2.13
2023-02-09T07:19:05.835Z,1.70
2023-02-09T07:21:32.919Z,1.73
2023-02-09T07:23:59.849Z,1.38
2023-02-09T07:26:26.749Z,2.27
2023-02-09T07:28:53.635Z,1.43
2023-02-09T07:31:20.442Z,2.03
2023-02-09T07:33:49.792Z,2.10
2023-02-09T07:36:16.966Z,1.37
2023-02-09T07:38:44.089Z,2.60
2023-02-09T07:41:17.353Z,0.82
2023-02-09T07:43:44.574Z,2.47
2023-02-09T07:46:15.050Z,2.85
2023-02-09T07:48:42.027Z,2.63
2023-02-09T07:51:14.039Z,2.40
2023-02-09T07:53:40.718Z,3.60
2023-02-09T07:56:08.000Z,3.13
2023-02-09T07:58:35.070Z,1.52
2023-02-09T08:01:07.304Z,3.53
2023-02-09T08:03:38.210Z,2.67
2023-02-09T08:06:12.570Z,3.80
2023-02-09T08:08:39.376Z,4.07
2023-02-09T08:11:06.360Z,2.22
2023-02-09T08:13:38.175Z,3.00
2023-02-09T08:16:08.797Z,2.80
2023-02-09T08:18:51.793Z,3.78
2023-02-09T08:21:20.311Z,3.70
2023-02-09T08:23:50.953Z,2.47
2023-02-09T08:26:18.897Z,1.80
2023-02-09T08:31:18.013Z,1.58
2023-02-09T08:33:47.501Z,1.55
2023-02-09T08:36:15.112Z,1.30
2023-02-09T08:38:42.308Z,1.80
2023-02-09T08:41:11.525Z,1.42
2023-02-09T08:43:38.342Z,0.80
2023-02-09T08:46:11.135Z,2.42
2023-02-09T08:48:40.845Z,0.47
2023-02-09T08:51:09.666Z,1.35
2023-02-09T08:53:36.576Z,1.58
2023-02-09T08:56:03.788Z,0.47
2023-02-09T08:58:32.187Z,0.17
2023-02-09T09:01:00.071Z,0.37
2023-02-09T09:06:02.250Z,0.55
2023-02-09T09:08:29.854Z,1.13
2023-02-09T09:10:57.072Z,0.50
2023-02-09T09:13:27.323Z,0.75
2023-02-09T09:15:57.411Z,0.63
2023-02-09T09:18:25.815Z,0.50
2023-02-09T09:20:56.237Z,0.37
2023-02-09T09:23:23.291Z,0.67
2023-02-09T09:25:50.382Z,1.15
2023-02-09T09:28:17.216Z,0.47
2023-02-09T09:30:44.018Z,0.60
2023-02-09T09:33:10.835Z,0.57
2023-02-09T09:35:37.985Z,0.70
2023-02-09T09:38:04.866Z,0.47
2023-02-09T09:40:35.003Z,0.80
2023-02-09T09:43:24.879Z,0.95
2023-02-09T09:45:51.745Z,0.95
2023-02-09T09:48:24.384Z,0.70
2023-02-09T09:50:56.181Z,0.50
2023-02-09T09:53:33.979Z,1.03
2023-02-09T09:58:33.421Z,0.60
2023-02-09T10:01:00.576Z,0.70
2023-02-09T10:03:27.755Z,0.93
2023-02-09T10:06:01.952Z,0.98
2023-02-09T10:08:37.272Z,0.67
2023-02-09T10:11:15.164Z,0.73
2023-02-09T10:16:17.105Z,0.30
2023-02-09T10:18:44.604Z,0.50
2023-02-09T10:21:14.705Z,0.75
2023-02-09T10:23:43.369Z,0.70
2023-02-09T10:26:10.310Z,0.67
2023-02-09T10:28:42.740Z,0.53
2023-02-09T10:31:21.046Z,0.80
2023-02-09T10:34:11.222Z,1.10
2023-02-09T10:36:54.303Z,0.60
2023-02-09T10:39:28.050Z,0.52
2023-02-09T10:41:57.313Z,0.90
2023-02-09T10:44:25.853Z,1.07
2023-02-09T10:47:12.776Z,0.57
2023-02-09T10:49:42.605Z,0.63
2023-02-09T10:52:21.417Z,0.75
2023-02-09T10:54:56.719Z,0.80
2023-02-09T10:57:28.131Z,0.52
2023-02-09T11:00:00.311Z,0.82
2023-02-09T11:02:43.509Z,1.63
2023-02-09T11:05:36.564Z,0.60
2023-02-09T11:08:16.613Z,0.77
2023-02-09T11:11:12.754Z,0.52
2023-02-09T11:13:41.204Z,2.25
2023-02-09T11:16:26.168Z,1.48
2023-02-09T11:19:43.294Z,0.73
2023-02-09T11:22:19.242Z,0.68
2023-02-09T11:24:55.081Z,1.10
2023-02-09T11:28:00.977Z,1.20
2023-02-09T11:31:01.481Z,0.63
2023-02-09T11:34:05.169Z,0.77
2023-02-09T11:36:45.506Z,0.75
2023-02-09T11:39:44.629Z,0.65
2023-02-09T11:42:42.905Z,0.93
2023-02-09T11:45:41.960Z,1.48
2023-02-09T11:48:08.592Z,1.00
2023-02-09T11:50:38.686Z,0.70
2023-02-09T11:53:28.125Z,1.63
2023-02-09T11:56:03.986Z,1.45
2023-02-09T11:58:53.379Z,1.13
2023-02-09T12:01:25.818Z,0.50
2023-02-09T12:04:21.567Z,0.80
2023-02-09T12:06:52.428Z,1.42
2023-02-09T12:09:31.060Z,1.60
2023-02-09T12:12:02.908Z,1.10
2023-02-09T12:14:45.696Z,0.70
2023-02-09T12:17:36.260Z,1.73
2023-02-09T12:20:04.498Z,0.28
2023-02-09T12:22:34.197Z,0.73
2023-02-09T12:25:22.283Z,0.70
2023-02-09T12:28:13.903Z,0.68
2023-02-09T12:30:40.884Z,0.60
2023-02-09T12:33:23.953Z,0.60
2023-02-09T12:36:18.292Z,1.55
2023-02-09T12:38:56.006Z,0.70
2023-02-09T12:41:49.974Z,0.75
2023-02-09T12:44:16.616Z,0.93
2023-02-09T12:46:49.176Z,0.38
2023-02-09T12:49:22.317Z,0.32
2023-02-09T12:51:54.628Z,0.85
2023-02-09T12:54:50.481Z,1.13
2023-02-09T12:57:17.903Z,0.30
2023-02-09T12:59:50.936Z,1.30
2023-02-09T13:02:48.738Z,0.40
2023-02-09T13:05:33.748Z,1.17
2023-02-09T13:08:13.535Z,0.60
2023-02-09T13:11:02.538Z,1.20
2023-02-09T13:13:32.264Z,0.83
2023-02-09T13:16:04.810Z,0.50
2023-02-09T13:18:37.949Z,0.77
2023-02-09T13:21:31.505Z,0.68
2023-02-09T13:23:58.158Z,0.68
2023-02-09T13:26:28.113Z,0.60
2023-02-09T13:29:19.807Z,0.60
2023-02-09T13:32:16.277Z,0.85
2023-02-09T13:35:03.966Z,0.27
2023-02-09T13:40:03.701Z,0.80
2023-02-09T13:42:35.737Z,0.43
2023-02-09T13:45:16.400Z,0.30
2023-02-09T13:47:44.161Z,1.13
2023-02-09T13:50:19.497Z,0.47
2023-02-09T13:52:54.751Z,0.55
2023-02-09T13:55:24.899Z,0.50
2023-02-09T13:58:00.648Z,0.32
2023-02-09T14:00:39.840Z,0.70
2023-02-09T14:03:14.447Z,1.15
2023-02-09T14:05:44.166Z,0.87
2023-02-09T14:08:15.011Z,1.00
2023-02-09T14:10:45.614Z,0.80
2023-02-09T14:17:38.871Z,0.70
2023-02-09T14:20:20.190Z,0.57
2023-02-09T14:22:56.141Z,1.70
2023-02-09T14:25:25.200Z,1.10
2023-02-09T14:27:52.650Z,1.13
2023-02-09T14:30:29.701Z,0.50
2023-02-09T14:32:58.968Z,0.55
2023-02-09T14:35:30.022Z,0.52
2023-02-09T14:37:59.712Z,0.60
2023-02-09T14:40:34.890Z,0.63
2023-02-09T14:43:22.194Z,0.67
2023-02-09T14:45:59.248Z,0.82
2023-02-09T14:48:28.867Z,0.50
2023-02-09T14:51:05.464Z,0.60
2023-02-09T14:53:33.309Z,0.43
2023-02-09T14:56:00.074Z,0.65
2023-02-09T14:58:29.783Z,0.67
2023-02-09T15:00:59.895Z,0.50
2023-02-09T15:03:27.146Z,0.47
2023-02-09T15:06:00.896Z,0.70
2023-02-09T15:08:30.557Z,0.43
2023-02-09T15:11:03.771Z,0.70
2023-02-09T15:13:33.131Z,0.90
2023-02-09T15:15:59.897Z,0.40
2023-02-09T15:18:27.286Z,0.40
2023-02-09T15:20:54.153Z,0.82
2023-02-09T15:23:20.882Z,0.63
2023-02-09T15:25:48.263Z,1.17
2023-02-09T15:28:30.475Z,0.98
2023-02-09T15:30:58.767Z,2.37
2023-02-09T15:33:26.993Z,1.67
2023-02-09T15:35:54.181Z,3.30
2023-02-09T15:38:24.034Z,3.65
2023-02-09T15:41:09.824Z,1.67
2023-02-09T15:43:55.524Z,3.00
2023-02-09T15:46:22.362Z,2.50
2023-02-09T15:48:49.545Z,3.75
2023-02-09T15:51:17.271Z,3.75
2023-02-09T15:53:45.454Z,3.47
2023-02-09T15:56:13.968Z,1.47
2023-02-09T15:58:44.512Z,1.00
2023-02-09T16:01:16.875Z,1.30
2023-02-09T16:03:44.212Z,1.73
2023-02-09T16:06:21.482Z,2.25
2023-02-09T16:08:51.497Z,2.17
2023-02-09T16:11:22.546Z,2.33
2023-02-09T16:13:56.579Z,2.00
2023-02-09T16:16:25.506Z,1.63
2023-02-09T16:18:52.475Z,0.80
2023-02-09T16:21:25.232Z,0.87
2023-02-09T16:23:54.538Z,0.87
2023-02-09T16:26:21.505Z,0.90
2023-02-09T16:28:48.321Z,2.27
2023-02-09T16:31:15.274Z,4.00
2023-02-09T16:33:43.455Z,2.07
2023-02-09T16:36:16.605Z,2.77
2023-02-09T16:38:43.742Z,2.23
2023-02-09T16:41:37.613Z,1.95
2023-02-09T16:44:17.705Z,1.40
2023-02-09T16:46:53.304Z,1.17
2023-02-09T16:49:42.026Z,1.20
2023-02-09T16:52:16.884Z,0.70
2023-02-09T16:54:59.349Z,0.97
2023-02-09T16:57:28.001Z,1.20
2023-02-09T16:59:54.778Z,0.80
2023-02-09T17:02:38.788Z,0.73
2023-02-09T17:05:29.355Z,1.00
2023-02-09T17:08:06.162Z,0.70
2023-02-09T17:10:36.186Z,1.40
2023-02-09T17:13:04.812Z,0.57
2023-02-09T17:15:40.216Z,0.70
2023-02-09T17:18:11.681Z,1.17
2023-02-09T17:20:42.826Z,1.43
2023-02-09T17:23:15.034Z,2.10
2023-02-09T17:25:41.794Z,0.87
2023-02-09T17:28:08.512Z,1.37
2023-02-09T17:30:36.504Z,0.80
2023-02-09T17:33:07.021Z,1.03
2023-02-09T17:36:10.221Z,3.83
2023-02-09T17:38:30.813Z,5.07
2023-02-09T17:40:59.877Z,5.47
2023-02-09T17:43:27.103Z,2.47
2023-02-09T17:45:54.359Z,1.50
2023-02-09T17:48:22.089Z,1.23
2023-02-09T17:50:50.704Z,0.95
2023-02-09T17:53:26.281Z,1.00
2023-02-09T17:55:56.391Z,1.57
2023-02-09T17:58:24.513Z,2.13
2023-02-09T18:00:56.069Z,1.27
2023-02-09T18:03:26.047Z,2.20
2023-02-09T18:05:58.596Z,2.73
2023-02-09T18:08:27.528Z,5.73
2023-02-09T18:10:58.057Z,3.27
2023-02-09T18:13:27.188Z,3.90
2023-02-09T18:15:54.883Z,4.20
2023-02-09T18:18:24.170Z,2.53
2023-02-09T18:20:51.574Z,2.87
2023-02-09T18:23:18.400Z,2.70
2023-02-09T18:25:46.812Z,1.90
2023-02-09T18:28:15.409Z,1.73
2023-02-09T18:30:43.059Z,1.63
2023-02-09T18:33:10.546Z,2.83
2023-02-09T18:35:44.703Z,1.92
2023-02-09T18:38:14.566Z,0.97
2023-02-09T18:40:41.459Z,1.20
2023-02-09T18:43:08.773Z,1.80
2023-02-09T18:45:35.758Z,1.20
2023-02-09T18:48:03.057Z,3.00
2023-02-09T18:50:31.873Z,1.80
2023-02-09T18:53:03.669Z,1.37
2023-02-09T18:55:32.743Z,0.63
2023-02-09T18:58:00.896Z,1.57
2023-02-09T19:00:28.625Z,1.20
2023-02-09T19:02:59.743Z,0.95
2023-02-09T19:05:29.319Z,2.03
2023-02-09T19:07:56.996Z,1.00
2023-02-09T19:10:24.500Z,0.60
2023-02-09T19:12:52.086Z,0.98
2023-02-09T19:15:19.737Z,0.55
2023-02-09T19:17:47.367Z,0.60
2023-02-09T19:20:21.173Z,0.88
2023-02-09T19:22:51.480Z,0.80
2023-02-09T19:25:20.123Z,0.83
2023-02-09T19:27:47.299Z,0.73
2023-02-09T19:30:17.243Z,0.50
2023-02-09T19:32:44.499Z,1.20
2023-02-09T19:35:11.318Z,1.45
2023-02-09T19:37:42.466Z,0.97
2023-02-09T19:40:21.390Z,1.20
2023-02-09T19:42:48.772Z,0.70
2023-02-09T19:45:16.341Z,0.88
2023-02-09T19:47:42.995Z,0.77
2023-02-09T19:50:11.128Z,1.17
2023-02-09T19:52:39.187Z,1.27
2023-02-09T19:55:06.761Z,1.20
2023-02-09T19:57:33.494Z,0.93
2023-02-09T20:00:00.372Z,1.30
2023-02-09T20:07:54.635Z,1.70
